createdAt,value
2019-05-02T00:03:05.869Z,1
2019-05-02T00:08:00.431Z,1
2019-05-02T00:13:00.375Z,1
2019-05-02T00:18:02.770Z,1
2019-05-02T00:23:00.452Z,1
2019-05-02T00:28:00.397Z,1
2019-05-02T00:33:00.393Z,1
2019-05-02T00:38:03.937Z,0
2019-05-02T00:43:00.372Z,1
2019-05-02T00:48:00.380Z,1
2019-05-02T00:53:00.404Z,2
2019-05-02T00:58:00.395Z,2
2019-05-02T01:03:00.432Z,2
2019-05-02T01:08:03.125Z,1
2019-05-02T01:13:00.398Z,2
2019-05-02T01:18:07.683Z,1
2019-05-02T01:23:00.354Z,3
2019-05-02T01:28:00.292Z,2
2019-05-02T01:33:06.688Z,3
2019-05-02T01:38:00.327Z,3
2019-05-02T01:43:01.601Z,4
2019-05-02T01:48:00.337Z,4
2019-05-02T01:53:00.289Z,3
2019-05-02T01:58:00.292Z,4
2019-05-02T02:03:10.308Z,4
2019-05-02T02:08:00.328Z,3
2019-05-02T02:13:05.436Z,4
2019-05-02T02:18:00.292Z,4
2019-05-02T02:23:00.265Z,5
2019-05-02T02:28:01.122Z,4
2019-05-02T02:33:09.886Z,4
2019-05-02T02:38:00.258Z,4
2019-05-02T02:43:34.476Z,5
2019-05-02T02:48:02.774Z,5
2019-05-02T02:53:00.299Z,4
2019-05-02T02:58:06.698Z,5
2019-05-02T03:03:00.220Z,4
2019-05-02T03:08:07.426Z,5
2019-05-02T03:13:00.316Z,5
2019-05-02T03:18:02.339Z,5
2019-05-02T03:23:00.264Z,5
2019-05-02T03:28:00.195Z,6
2019-05-02T03:33:12.568Z,6
2019-05-02T03:38:00.174Z,6
2019-05-02T03:43:00.218Z,6
2019-05-02T03:48:00.219Z,6
2019-05-02T03:53:00.224Z,6
2019-05-02T03:58:00.207Z,7
2019-05-02T04:03:02.758Z,8
2019-05-02T04:08:00.135Z,7
2019-05-02T04:13:00.239Z,8
2019-05-02T04:18:00.188Z,10
2019-05-02T04:23:00.163Z,11
2019-05-02T04:28:00.137Z,9
2019-05-02T04:33:00.157Z,7
2019-05-02T04:38:19.933Z,10
2019-05-02T04:43:11.331Z,8
2019-05-02T04:48:04.310Z,7
2019-05-02T04:53:00.155Z,6
2019-05-02T04:58:02.051Z,13
2019-05-02T05:03:00.156Z,6
2019-05-02T05:08:01.327Z,5
2019-05-02T05:13:00.118Z,7
2019-05-02T05:18:14.330Z,4
2019-05-02T05:23:00.098Z,4
2019-05-02T05:28:08.944Z,7
2019-05-02T05:33:00.103Z,4
2019-05-02T05:38:00.152Z,5
2019-05-02T05:48:01.289Z,5
2019-05-02T05:53:00.812Z,9
2019-05-02T05:58:16.329Z,10
2019-05-02T06:03:14.097Z,5
2019-05-02T06:08:00.774Z,5
2019-05-02T06:13:12.837Z,5
2019-05-02T06:18:06.284Z,5
2019-05-02T06:23:01.439Z,9
2019-05-02T06:28:06.992Z,10
2019-05-02T06:33:00.761Z,8
2019-05-02T06:38:00.732Z,16
2019-05-02T06:43:11.233Z,9
2019-05-02T06:48:01.383Z,9
2019-05-02T06:53:11.082Z,10
2019-05-02T06:58:08.301Z,8
2019-05-02T07:03:11.526Z,6
2019-05-02T07:08:00.876Z,7
2019-05-02T07:13:15.224Z,6
2019-05-02T07:18:12.181Z,15
2019-05-02T07:23:00.707Z,9
2019-05-02T07:28:10.670Z,8
2019-05-02T07:33:02.497Z,8
2019-05-02T07:38:00.726Z,6
2019-05-02T07:43:00.695Z,5
2019-05-02T07:48:01.832Z,6
2019-05-02T07:53:12.155Z,8
2019-05-02T07:58:07.127Z,8
2019-05-02T08:03:00.684Z,9
2019-05-02T08:08:00.648Z,8
2019-05-02T08:13:00.681Z,9
2019-05-02T08:18:00.662Z,8
2019-05-02T08:23:00.653Z,17
2019-05-02T08:28:00.673Z,8
2019-05-02T08:33:00.658Z,8
2019-05-02T08:38:00.665Z,7
2019-05-02T08:43:10.876Z,8
2019-05-02T08:48:06.768Z,10
2019-05-02T08:53:00.654Z,8
2019-05-02T08:58:00.612Z,12
2019-05-02T09:03:04.801Z,8
2019-05-02T09:08:00.618Z,8
2019-05-02T09:13:02.799Z,8
2019-05-02T09:18:03.011Z,9
2019-05-02T09:23:01.893Z,8
2019-05-02T09:28:02.044Z,9
2019-05-02T09:33:06.859Z,10
2019-05-02T09:38:01.949Z,8
2019-05-02T09:43:04.961Z,9
2019-05-02T09:48:08.361Z,8
2019-05-02T10:44:13.029Z,7
2019-05-02T10:49:22.757Z,6
2019-05-02T10:54:12.162Z,8
2019-05-02T10:59:11.959Z,6
2019-05-02T11:04:13.027Z,7
2019-05-02T11:09:21.454Z,6
2019-05-02T11:14:12.149Z,35
2019-05-02T11:19:13.373Z,7
2019-05-02T11:24:14.527Z,6
2019-05-02T11:29:12.282Z,6
2019-05-02T11:34:12.656Z,7
2019-05-02T11:39:43.442Z,9
2019-05-02T11:44:12.395Z,8
2019-05-02T11:49:12.442Z,8
2019-05-02T11:54:13.214Z,9
2019-05-02T11:59:15.154Z,9
2019-05-02T12:04:17.092Z,8
2019-05-02T12:09:13.394Z,10
2019-05-02T12:14:12.451Z,9
2019-05-02T12:19:15.101Z,10
2019-05-02T12:24:12.889Z,10
2019-05-02T12:29:14.803Z,10
2019-05-02T12:34:14.781Z,10
2019-05-02T12:39:14.785Z,10
2019-05-02T12:44:14.767Z,11
2019-05-02T12:49:28.113Z,8
2019-05-02T12:54:14.762Z,16
2019-05-02T12:59:14.756Z,10
2019-05-02T13:04:14.781Z,14
2019-05-02T13:09:14.763Z,10
2019-05-02T13:14:20.033Z,12
2019-05-02T13:19:15.110Z,11
2019-05-02T13:24:16.785Z,10
2019-05-02T13:29:14.751Z,10
2019-05-02T13:34:15.130Z,11
2019-05-02T13:39:14.727Z,11
2019-05-02T13:44:14.714Z,13
2019-05-02T13:49:14.747Z,12
2019-05-02T13:54:14.728Z,14
2019-05-02T13:59:14.701Z,13
2019-05-02T14:04:15.314Z,13
2019-05-02T14:09:22.577Z,13
2019-05-02T14:14:14.719Z,11
2019-05-02T14:19:14.675Z,12
2019-05-02T14:24:14.931Z,13
2019-05-02T14:29:16.519Z,11
2019-05-02T14:34:19.197Z,14
2019-05-02T14:39:14.700Z,12
2019-05-02T14:44:26.851Z,12
2019-05-02T14:49:25.375Z,9
2019-05-02T14:54:14.641Z,10
2019-05-02T14:59:22.159Z,9
2019-05-02T15:04:14.708Z,8
2019-05-02T15:09:26.542Z,10
2019-05-02T15:14:22.515Z,9
2019-05-02T15:19:14.629Z,10
2019-05-02T15:24:14.657Z,9
2019-05-02T15:29:27.348Z,10
2019-05-02T15:34:14.608Z,17
2019-05-02T15:40:42.884Z,10
2019-05-02T15:44:14.650Z,12
2019-05-02T15:49:14.621Z,10
2019-05-02T15:54:22.328Z,10
2019-05-02T15:59:14.668Z,12
2019-05-02T16:04:25.601Z,11
2019-05-02T16:09:21.726Z,10
2019-05-02T16:14:14.621Z,9
2019-05-02T16:19:29.619Z,12
2019-05-02T16:24:15.103Z,13
2019-05-02T16:29:28.615Z,12
2019-05-02T16:34:15.169Z,14
2019-05-02T16:39:15.656Z,12
2019-05-02T16:44:14.558Z,13
2019-05-02T16:49:18.855Z,13
2019-05-02T16:54:14.583Z,17
2019-05-02T16:59:23.181Z,13
2019-05-02T17:04:16.784Z,15
2019-05-02T17:09:14.557Z,13
2019-05-02T17:14:14.557Z,16
2019-05-02T17:19:14.674Z,13
2019-05-02T17:24:26.018Z,16
2019-05-02T17:29:22.612Z,15
2019-05-02T17:39:26.185Z,16
2019-05-02T17:44:25.622Z,18
2019-05-02T17:49:36.972Z,18
2019-05-02T17:54:26.479Z,20
2019-05-02T17:59:37.346Z,18
2019-05-02T18:06:55.423Z,18
2019-05-02T18:30:28.617Z,19
2019-05-02T18:35:19.646Z,20
2019-05-02T19:19:22.719Z,21
2019-05-02T19:31:46.285Z,22
2019-05-02T19:36:36.653Z,22
2019-05-02T19:41:45.541Z,20
2019-05-02T19:46:39.186Z,23
2019-05-02T19:51:36.581Z,23
2019-05-02T19:56:47.758Z,23
2019-05-02T20:01:36.615Z,21
2019-05-02T20:06:36.622Z,22
2019-05-02T20:11:37.348Z,23
2019-05-02T20:16:46.000Z,22
2019-05-02T20:21:38.387Z,23
2019-05-02T20:26:38.355Z,22
2019-05-02T20:31:38.352Z,22
2019-05-02T20:36:38.367Z,22
2019-05-02T20:41:42.097Z,21
2019-05-02T20:46:38.335Z,22
2019-05-02T20:51:38.395Z,20
2019-05-02T20:56:38.338Z,21
2019-05-02T21:01:38.352Z,21
2019-05-02T21:06:44.258Z,22
2019-05-02T21:11:38.302Z,22
2019-05-02T21:26:42.301Z,20
2019-05-02T21:31:42.715Z,20
2019-05-02T21:36:45.443Z,19
2019-05-02T21:41:42.502Z,20
2019-05-02T21:46:42.526Z,20
2019-05-02T21:51:42.742Z,19
2019-05-02T21:56:43.188Z,20
2019-05-02T22:01:42.392Z,18
2019-05-02T22:06:42.960Z,19
2019-05-02T22:11:43.229Z,20
2019-05-02T22:16:42.394Z,19
2019-05-02T22:21:43.209Z,18
2019-05-02T22:26:43.728Z,22
2019-05-02T22:36:41.756Z,20
2019-05-02T22:41:42.131Z,21
2019-05-02T22:46:43.810Z,21
2019-05-02T22:51:46.210Z,20
2019-05-02T22:56:42.796Z,21
2019-05-02T23:01:42.435Z,20
2019-05-02T23:06:44.410Z,19
2019-05-02T23:11:42.896Z,20
2019-05-02T23:16:43.057Z,22
2019-05-02T23:21:42.585Z,18
2019-05-02T23:26:42.328Z,22
2019-05-02T23:31:42.430Z,20
